Aérodrome :
LOGIN :

S'inscrire | Disclaimer

   EN    FR    IT 

 










Légende :    VFR   VFR Marginal   IFR   IFR Intensif   IFR Très Intensif
Visi : 
Plafond : 
>= 8 km
>= 3000ft
5 à 8 km
1000 à 3000 ft
1500m à 5 km
500 à 1000 ft
800 à 1500m
200 à 500 ft
< 800m
< 200 ft
Symboles :   Orages  Brouillard  Fortes neiges  Fortes précipitations  Vent > 20 kt
SIGMETs :   Divers  Orages  Givrage  Turbulence  Onde Orograph.  Cendres Volcan.







- Altitude de l'aérodrome : 142 ft
- Code IATA : ALC


LEAL - Alicante

METAR N/A
TAF TAF LEAL
Valide du 23 à 18h jusqu'au 24 à 18h UTC


231700Z 2318/2418 09008KT 9999 FEW030 TX14/2413Z TN06/2406Z
BECMG 2319/2322 33006KT
BECMG 2408/2410 10008KT
TEMPO 2405/2418 FEW020TCU SCT025
PROB30
TEMPO 2408/2415 4000 SHRA SCT020TCU BKN025
Pas de NOTAMs connus pour ce terrain.
1 SIGMET publié pour la FIR Barcelona (LECB) :
 
Turbulence forte
LECB SIGMET 2 VALID 241200/241600 LEVA
LECB BARCELONA FIR/UIR SEV TURB FCST N OF LINE N4028 E00433 - N4118 W00033 FL200/350 MOV SW 15KT NC=



MET'MAP, la Météo Aéronautique d'un coup d'oeil ! - Copyright ORBIFLY Décembre 2007 - Disclaimer

ORBIFLY MET'MAP TEAM :

Programmation & Développement : Alexandra Zaïnal
Conception & Développement : Baudouin d'Aumeries
Co-Programmation & Développement : Marc-Olivier Méhu
Soutien technique & logistique : Manuel Goepfert

Contact : metmap@orbifly.com




SOURCES & CREDITS :

   NOAA